PWSweather.com
Personal Weather Stations
Station Observations
ISARDEGN48
BittiIT 08021

BittiIT 08021

Lat: 40.4805, Lon: 9.3887

Elevation: 1804

Station Type: La Crosse WS2355

http://meteobitti.altervista.org

High Low Average
Temperature 52.7°F11.5°C 44.8°F7.1°C 48.3°F9.1°C
Dew Point 46.7°F8.2°C 38.0°F3.3°C 43.2°F6.2°C
Winds 14.1 mph 22.7 kmh Calm Calm 3.0 mph SE4.8 kmh SE
Wind Gusts 18.6 mph29.9 kmh 0.7 mph1.1 kmh 9.0 mph14.5 kmh
Humidity 88% 77% 82%
Pressure 29.77 in1008.1 mb 29.59 in1002.0 mb -
Precipitation 0.00 in0.0 mm - -
Hour Temp Dew Point Humidity Winds Wind Gusts Pressure Precip Precip Rate Daily Precip Total
12:00 AM 52.7°F11.5°C 46.1°F7.8°C 78% 10.3 mph SW16.6 kmh SW 10.3 mph16.6 kmh 29.60 in1002.4 mb 0.00 in0.0 mm 0.00 in0.0 mm 0.00 in0.0 mm
12:05 AM 52.5°F11.4°C 46.6°F8.1°C 80% 8.3 mph SW13.4 kmh SW 10.3 mph16.6 kmh 29.60 in1002.4 mb 0.00 in0.0 mm 0.00 in0.0 mm 0.00 in0.0 mm
12:10 AM 52.3°F11.3°C 46.4°F8.0°C 80% 1.6 mph SW2.6 kmh SW 8.3 mph13.4 kmh 29.60 in1002.4 mb 0.00 in0.0 mm 0.00 in0.0 mm 0.00 in0.0 mm
12:15 AM 52.2°F11.2°C 46.2°F7.9°C 80% 2.7 mph E4.3 kmh E 8.3 mph13.4 kmh 29.60 in1002.4 mb 0.00 in0.0 mm 0.00 in0.0 mm 0.00 in0.0 mm
12:20 AM 52.0°F11.1°C 46.7°F8.2°C 82% 5.1 mph SW8.2 kmh SW 11.4 mph18.3 kmh 29.60 in1002.4 mb 0.00 in0.0 mm 0.00 in0.0 mm 0.00 in0.0 mm
12:25 AM 51.8°F11.0°C 46.2°F7.9°C 81% 3.6 mph SW5.8 kmh SW 11.4 mph18.3 kmh 29.60 in1002.4 mb 0.00 in0.0 mm 0.00 in0.0 mm 0.00 in0.0 mm
12:30 AM 51.6°F10.9°C 46.3°F7.9°C 82% 2.7 mph S4.3 kmh S 8.9 mph14.3 kmh 29.59 in1002.0 mb 0.00 in0.0 mm 0.00 in0.0 mm 0.00 in0.0 mm
12:35 AM 51.6°F10.9°C 46.6°F8.1°C 83% 7.2 mph SSW11.6 kmh SSW 12.5 mph20.1 kmh 29.59 in1002.0 mb 0.00 in0.0 mm 0.00 in0.0 mm 0.00 in0.0 mm
12:40 AM 51.6°F10.9°C 46.6°F8.1°C 83% 3.4 mph SSW5.5 kmh SSW 12.5 mph20.1 kmh 29.60 in1002.4 mb 0.00 in0.0 mm 0.00 in0.0 mm 0.00 in0.0 mm
12:45 AM 51.4°F10.8°C 46.4°F8.0°C 83% 8.1 mph SSW13.0 kmh SSW 15.2 mph24.5 kmh 29.60 in1002.4 mb 0.00 in0.0 mm 0.00 in0.0 mm 0.00 in0.0 mm
12:50 AM 51.3°F10.7°C 46.5°F8.1°C 84% 3.1 mph SW5.0 kmh SW 15.2 mph24.5 kmh 29.60 in1002.4 mb 0.00 in0.0 mm 0.00 in0.0 mm 0.00 in0.0 mm
12:55 AM 51.1°F10.6°C 46.4°F8.0°C 84% 2.0 mph SSW3.2 kmh SSW 11.6 mph18.7 kmh 29.60 in1002.4 mb 0.00 in0.0 mm 0.00 in0.0 mm 0.00 in0.0 mm
01:00 AM 51.1°F10.6°C 46.4°F8.0°C 84% 6.0 mph SSW9.7 kmh SSW 11.2 mph18.0 kmh 29.60 in1002.4 mb 0.00 in0.0 mm 0.00 in0.0 mm 0.00 in0.0 mm
01:05 AM 50.9°F10.5°C 46.2°F7.9°C 84% 5.4 mph SW8.7 kmh SW 14.1 mph22.7 kmh 29.60 in1002.4 mb 0.00 in0.0 mm 0.00 in0.0 mm 0.00 in0.0 mm
01:10 AM 50.9°F10.5°C 46.2°F7.9°C 84% 2.5 mph SW4.0 kmh SW 14.1 mph22.7 kmh 29.60 in1002.4 mb 0.00 in0.0 mm 0.00 in0.0 mm 0.00 in0.0 mm
01:15 AM 50.7°F10.4°C 46.0°F7.8°C 84% 4.5 mph SW7.2 kmh SW 11.9 mph19.2 kmh 29.60 in1002.4 mb 0.00 in0.0 mm 0.00 in0.0 mm 0.00 in0.0 mm
01:20 AM 50.7°F10.4°C 45.7°F7.6°C 83% 5.4 mph SW8.7 kmh SW 9.2 mph14.8 kmh 29.59 in1002.0 mb 0.00 in0.0 mm 0.00 in0.0 mm 0.00 in0.0 mm
01:25 AM 50.7°F10.4°C 45.7°F7.6°C 83% 6.3 mph SW10.1 kmh SW 14.8 mph23.8 kmh 29.59 in1002.0 mb 0.00 in0.0 mm 0.00 in0.0 mm 0.00 in0.0 mm
01:30 AM 50.5°F10.3°C 45.5°F7.5°C 83% 3.6 mph SW5.8 kmh SW 14.8 mph23.8 kmh 29.60 in1002.4 mb 0.00 in0.0 mm 0.00 in0.0 mm 0.00 in0.0 mm
01:35 AM 50.5°F10.3°C 45.5°F7.5°C 83% 4.5 mph SW7.2 kmh SW 11.2 mph18.0 kmh 29.60 in1002.4 mb 0.00 in0.0 mm 0.00 in0.0 mm 0.00 in0.0 mm
01:40 AM 50.4°F10.2°C 45.3°F7.4°C 83% 1.1 mph SW1.8 kmh SW 8.3 mph13.4 kmh 29.60 in1002.4 mb 0.00 in0.0 mm 0.00 in0.0 mm 0.00 in0.0 mm
01:45 AM 50.4°F10.2°C 45.3°F7.4°C 83% Calm Calm 7.8 mph12.6 kmh 29.60 in1002.4 mb 0.00 in0.0 mm 0.00 in0.0 mm 0.00 in0.0 mm
01:50 AM 50.2°F10.1°C 45.2°F7.3°C 83% 2.5 mph WSW4.0 kmh WSW 7.6 mph12.2 kmh 29.60 in1002.4 mb 0.00 in0.0 mm 0.00 in0.0 mm 0.00 in0.0 mm
01:55 AM 50.2°F10.1°C 44.9°F7.2°C 82% Calm Calm 7.6 mph12.2 kmh 29.60 in1002.4 mb 0.00 in0.0 mm 0.00 in0.0 mm 0.00 in0.0 mm
02:00 AM 50.2°F10.1°C 44.9°F7.2°C 82% Calm Calm 7.4 mph11.9 kmh 29.60 in1002.4 mb 0.00 in0.0 mm 0.00 in0.0 mm 0.00 in0.0 mm
02:05 AM 50.4°F10.2°C 44.7°F7.1°C 81% 3.1 mph WNW5.0 kmh WNW 7.4 mph11.9 kmh 29.61 in1002.7 mb 0.00 in0.0 mm 0.00 in0.0 mm 0.00 in0.0 mm
02:10 AM 50.4°F10.2°C 44.7°F7.1°C 81% 2.5 mph WSW4.0 kmh WSW 8.5 mph13.7 kmh 29.61 in1002.7 mb 0.00 in0.0 mm 0.00 in0.0 mm 0.00 in0.0 mm
02:15 AM 50.5°F10.3°C 44.9°F7.2°C 81% 5.4 mph WSW8.7 kmh WSW 8.5 mph13.7 kmh 29.61 in1002.7 mb 0.00 in0.0 mm 0.00 in0.0 mm 0.00 in0.0 mm
02:20 AM 50.4°F10.2°C 44.7°F7.1°C 81% 2.0 mph WSW3.2 kmh WSW 5.4 mph8.7 kmh 29.61 in1002.7 mb 0.00 in0.0 mm 0.00 in0.0 mm 0.00 in0.0 mm
02:25 AM 50.4°F10.2°C 44.7°F7.1°C 81% 1.8 mph WSW2.9 kmh WSW 6.5 mph10.5 kmh 29.60 in1002.4 mb 0.00 in0.0 mm 0.00 in0.0 mm 0.00 in0.0 mm
02:30 AM 50.2°F10.1°C 44.5°F6.9°C 81% 4.9 mph WSW7.9 kmh WSW 10.7 mph17.2 kmh 29.60 in1002.4 mb 0.00 in0.0 mm 0.00 in0.0 mm 0.00 in0.0 mm
02:35 AM 50.2°F10.1°C 44.2°F6.8°C 80% 2.9 mph WSW4.7 kmh WSW 10.7 mph17.2 kmh 29.60 in1002.4 mb 0.00 in0.0 mm 0.00 in0.0 mm 0.00 in0.0 mm
02:40 AM 50.2°F10.1°C 44.2°F6.8°C 80% 2.2 mph W3.5 kmh W 7.2 mph11.6 kmh 29.60 in1002.4 mb 0.00 in0.0 mm 0.00 in0.0 mm 0.00 in0.0 mm
02:45 AM 50.0°F10.0°C 44.4°F6.9°C 81% Calm Calm 7.6 mph12.2 kmh 29.60 in1002.4 mb 0.00 in0.0 mm 0.00 in0.0 mm 0.00 in0.0 mm
02:50 AM 49.8°F9.9°C 44.2°F6.8°C 81% Calm Calm 7.6 mph12.2 kmh 29.60 in1002.4 mb 0.00 in0.0 mm 0.00 in0.0 mm 0.00 in0.0 mm
02:55 AM 49.8°F9.9°C 44.5°F6.9°C 82% 1.3 mph NNW2.1 kmh NNW 3.8 mph6.1 kmh 29.60 in1002.4 mb 0.00 in0.0 mm 0.00 in0.0 mm 0.00 in0.0 mm
03:00 AM 49.6°F9.8°C 44.3°F6.8°C 82% 0.9 mph W1.4 kmh W 4.9 mph7.9 kmh 29.60 in1002.4 mb 0.00 in0.0 mm 0.00 in0.0 mm 0.00 in0.0 mm
03:05 AM 49.6°F9.8°C 44.3°F6.8°C 82% 1.3 mph SW2.1 kmh SW 4.9 mph7.9 kmh 29.60 in1002.4 mb 0.00 in0.0 mm 0.00 in0.0 mm 0.00 in0.0 mm
03:10 AM 49.6°F9.8°C 44.3°F6.8°C 82% 1.1 mph SW1.8 kmh SW 2.7 mph4.3 kmh 29.60 in1002.4 mb 0.00 in0.0 mm 0.00 in0.0 mm 0.00 in0.0 mm
03:15 AM 49.6°F9.8°C 44.3°F6.8°C 82% 0.7 mph WSW1.1 kmh WSW 6.7 mph10.8 kmh 29.60 in1002.4 mb 0.00 in0.0 mm 0.00 in0.0 mm 0.00 in0.0 mm
03:20 AM 49.6°F9.8°C 44.3°F6.8°C 82% 7.2 mph WSW11.6 kmh WSW 7.4 mph11.9 kmh 29.60 in1002.4 mb 0.00 in0.0 mm 0.00 in0.0 mm 0.00 in0.0 mm
03:25 AM 49.6°F9.8°C 44.3°F6.8°C 82% Calm Calm 8.1 mph13.0 kmh 29.60 in1002.4 mb 0.00 in0.0 mm 0.00 in0.0 mm 0.00 in0.0 mm
03:30 AM 49.6°F9.8°C 44.3°F6.8°C 82% 0.9 mph SW1.4 kmh SW 8.1 mph13.0 kmh 29.60 in1002.4 mb 0.00 in0.0 mm 0.00 in0.0 mm 0.00 in0.0 mm
03:35 AM 49.6°F9.8°C 44.3°F6.8°C 82% 3.8 mph S6.1 kmh S 5.6 mph9.0 kmh 29.61 in1002.7 mb 0.00 in0.0 mm 0.00 in0.0 mm 0.00 in0.0 mm
03:40 AM 49.6°F9.8°C 44.3°F6.8°C 82% Calm Calm 5.6 mph9.0 kmh 29.61 in1002.7 mb 0.00 in0.0 mm 0.00 in0.0 mm 0.00 in0.0 mm
03:45 AM 49.6°F9.8°C 44.3°F6.8°C 82% 1.8 mph SE2.9 kmh SE 5.1 mph8.2 kmh 29.61 in1002.7 mb 0.00 in0.0 mm 0.00 in0.0 mm 0.00 in0.0 mm
03:50 AM 49.3°F9.6°C 44.3°F6.8°C 83% Calm Calm 4.0 mph6.4 kmh 29.61 in1002.7 mb 0.00 in0.0 mm 0.00 in0.0 mm 0.00 in0.0 mm
03:55 AM 49.3°F9.6°C 44.3°F6.8°C 83% 1.1 mph NE1.8 kmh NE 4.0 mph6.4 kmh 29.61 in1002.7 mb 0.00 in0.0 mm 0.00 in0.0 mm 0.00 in0.0 mm
04:00 AM 49.3°F9.6°C 44.3°F6.8°C 83% Calm Calm 1.6 mph2.6 kmh 29.61 in1002.7 mb 0.00 in0.0 mm 0.00 in0.0 mm 0.00 in0.0 mm
04:05 AM 49.1°F9.5°C 44.1°F6.7°C 83% Calm Calm 1.6 mph2.6 kmh 29.61 in1002.7 mb 0.00 in0.0 mm 0.00 in0.0 mm 0.00 in0.0 mm
04:10 AM 48.9°F9.4°C 43.9°F6.6°C 83% Calm Calm 1.3 mph2.1 kmh 29.61 in1002.7 mb 0.00 in0.0 mm 0.00 in0.0 mm 0.00 in0.0 mm
04:15 AM 48.7°F9.3°C 44.1°F6.7°C 84% 1.1 mph SW1.8 kmh SW 1.3 mph2.1 kmh 29.61 in1002.7 mb 0.00 in0.0 mm 0.00 in0.0 mm 0.00 in0.0 mm
04:20 AM 48.7°F9.3°C 44.1°F6.7°C 84% Calm Calm 1.8 mph2.9 kmh 29.61 in1002.7 mb 0.00 in0.0 mm 0.00 in0.0 mm 0.00 in0.0 mm
04:25 AM 48.7°F9.3°C 44.1°F6.7°C 84% 0.9 mph SW1.4 kmh SW 2.5 mph4.0 kmh 29.61 in1002.7 mb 0.00 in0.0 mm 0.00 in0.0 mm 0.00 in0.0 mm
04:30 AM 48.6°F9.2°C 43.9°F6.6°C 84% Calm Calm 2.5 mph4.0 kmh 29.62 in1003.0 mb 0.00 in0.0 mm 0.00 in0.0 mm 0.00 in0.0 mm
04:35 AM 48.4°F9.1°C 44.0°F6.7°C 85% Calm Calm 1.1 mph1.8 kmh 29.61 in1002.7 mb 0.00 in0.0 mm 0.00 in0.0 mm 0.00 in0.0 mm
04:40 AM 48.6°F9.2°C 44.2°F6.8°C 85% Calm Calm 1.3 mph2.1 kmh 29.62 in1003.0 mb 0.00 in0.0 mm 0.00 in0.0 mm 0.00 in0.0 mm
04:45 AM 48.4°F9.1°C 44.0°F6.7°C 85% Calm Calm 1.3 mph2.1 kmh 29.61 in1002.7 mb 0.00 in0.0 mm 0.00 in0.0 mm 0.00 in0.0 mm
04:50 AM 48.4°F9.1°C 44.0°F6.7°C 85% Calm Calm 0.7 mph1.1 kmh 29.62 in1003.0 mb 0.00 in0.0 mm 0.00 in0.0 mm 0.00 in0.0 mm
04:55 AM 48.4°F9.1°C 44.0°F6.7°C 85% Calm Calm 0.7 mph1.1 kmh 29.62 in1003.0 mb 0.00 in0.0 mm 0.00 in0.0 mm 0.00 in0.0 mm
05:00 AM 48.2°F9.0°C 44.2°F6.8°C 86% 0.9 mph SW1.4 kmh SW 0.9 mph1.4 kmh 29.62 in1003.0 mb 0.00 in0.0 mm 0.00 in0.0 mm 0.00 in0.0 mm
05:05 AM 48.4°F9.1°C 44.4°F6.9°C 86% 2.9 mph SSW4.7 kmh SSW 5.1 mph8.2 kmh 29.62 in1003.0 mb 0.00 in0.0 mm 0.00 in0.0 mm 0.00 in0.0 mm
05:10 AM 48.7°F9.3°C 45.0°F7.2°C 87% 3.4 mph SSW5.5 kmh SSW 6.9 mph11.1 kmh 29.62 in1003.0 mb 0.00 in0.0 mm 0.00 in0.0 mm 0.00 in0.0 mm
05:15 AM 49.1°F9.5°C 45.0°F7.2°C 86% 4.5 mph SSW7.2 kmh SSW 6.9 mph11.1 kmh 29.62 in1003.0 mb 0.00 in0.0 mm 0.00 in0.0 mm 0.00 in0.0 mm
05:20 AM 49.3°F9.6°C 45.2°F7.3°C 86% 4.3 mph S6.9 kmh S 6.3 mph10.1 kmh 29.62 in1003.0 mb 0.00 in0.0 mm 0.00 in0.0 mm 0.00 in0.0 mm
05:25 AM 49.3°F9.6°C 45.2°F7.3°C 86% 0.7 mph SSW1.1 kmh SSW 6.7 mph10.8 kmh 29.62 in1003.0 mb 0.00 in0.0 mm 0.00 in0.0 mm 0.00 in0.0 mm
05:30 AM 49.3°F9.6°C 45.2°F7.3°C 86% Calm Calm 6.7 mph10.8 kmh 29.62 in1003.0 mb 0.00 in0.0 mm 0.00 in0.0 mm 0.00 in0.0 mm
05:35 AM 49.3°F9.6°C 45.2°F7.3°C 86% 3.1 mph SSW5.0 kmh SSW 7.8 mph12.6 kmh 29.62 in1003.0 mb 0.00 in0.0 mm 0.00 in0.0 mm 0.00 in0.0 mm
05:40 AM 49.3°F9.6°C 45.2°F7.3°C 86% 2.5 mph SSW4.0 kmh SSW 7.8 mph12.6 kmh 29.63 in1003.4 mb 0.00 in0.0 mm 0.00 in0.0 mm 0.00 in0.0 mm
05:45 AM 49.1°F9.5°C 45.0°F7.2°C 86% 2.7 mph SSW4.3 kmh SSW 4.9 mph7.9 kmh 29.62 in1003.0 mb 0.00 in0.0 mm 0.00 in0.0 mm 0.00 in0.0 mm
05:50 AM 48.9°F9.4°C 44.9°F7.2°C 86% 2.2 mph NNE3.5 kmh NNE 4.5 mph7.2 kmh 29.63 in1003.4 mb 0.00 in0.0 mm 0.00 in0.0 mm 0.00 in0.0 mm
05:55 AM 48.7°F9.3°C 44.7°F7.1°C 86% 6.0 mph SSW9.7 kmh SSW 6.9 mph11.1 kmh 29.63 in1003.4 mb 0.00 in0.0 mm 0.00 in0.0 mm 0.00 in0.0 mm
06:00 AM 48.7°F9.3°C 44.7°F7.1°C 86% 4.7 mph SSW7.6 kmh SSW 9.2 mph14.8 kmh 29.63 in1003.4 mb 0.00 in0.0 mm 0.00 in0.0 mm 0.00 in0.0 mm
06:05 AM 48.7°F9.3°C 44.4°F6.9°C 85% 8.3 mph SSW13.4 kmh SSW 11.0 mph17.7 kmh 29.63 in1003.4 mb 0.00 in0.0 mm 0.00 in0.0 mm 0.00 in0.0 mm
06:10 AM 48.7°F9.3°C 44.4°F6.9°C 85% 6.5 mph SSW10.5 kmh SSW 11.0 mph17.7 kmh 29.63 in1003.4 mb 0.00 in0.0 mm 0.00 in0.0 mm 0.00 in0.0 mm
06:15 AM 48.9°F9.4°C 44.6°F7.0°C 85% 3.1 mph SSW5.0 kmh SSW 9.8 mph15.8 kmh 29.63 in1003.4 mb 0.00 in0.0 mm 0.00 in0.0 mm 0.00 in0.0 mm
06:20 AM 48.9°F9.4°C 44.6°F7.0°C 85% 2.9 mph SSW4.7 kmh SSW 8.9 mph14.3 kmh 29.63 in1003.4 mb 0.00 in0.0 mm 0.00 in0.0 mm 0.00 in0.0 mm
06:25 AM 48.9°F9.4°C 44.6°F7.0°C 85% 4.0 mph SSW6.4 kmh SSW 7.4 mph11.9 kmh 29.64 in1003.7 mb 0.00 in0.0 mm 0.00 in0.0 mm 0.00 in0.0 mm
06:30 AM 48.9°F9.4°C 44.9°F7.2°C 86% 4.0 mph SSW6.4 kmh SSW 7.8 mph12.6 kmh 29.64 in1003.7 mb 0.00 in0.0 mm 0.00 in0.0 mm 0.00 in0.0 mm
06:35 AM 48.7°F9.3°C 44.7°F7.1°C 86% 4.7 mph SSW7.6 kmh SSW 10.3 mph16.6 kmh 29.64 in1003.7 mb 0.00 in0.0 mm 0.00 in0.0 mm 0.00 in0.0 mm
06:40 AM 48.7°F9.3°C 44.7°F7.1°C 86% 6.7 mph SSW10.8 kmh SSW 10.5 mph16.9 kmh 29.64 in1003.7 mb 0.00 in0.0 mm 0.00 in0.0 mm 0.00 in0.0 mm
06:45 AM 48.7°F9.3°C 44.7°F7.1°C 86% 6.3 mph SSW10.1 kmh SSW 10.5 mph16.9 kmh 29.64 in1003.7 mb 0.00 in0.0 mm 0.00 in0.0 mm 0.00 in0.0 mm
06:50 AM 48.7°F9.3°C 44.7°F7.1°C 86% 5.4 mph SSW8.7 kmh SSW 9.8 mph15.8 kmh 29.64 in1003.7 mb 0.00 in0.0 mm 0.00 in0.0 mm 0.00 in0.0 mm
06:55 AM 48.7°F9.3°C 44.7°F7.1°C 86% 3.4 mph SSW5.5 kmh SSW 8.5 mph13.7 kmh 29.64 in1003.7 mb 0.00 in0.0 mm 0.00 in0.0 mm 0.00 in0.0 mm
07:00 AM 48.7°F9.3°C 44.7°F7.1°C 86% 6.3 mph SSW10.1 kmh SSW 8.3 mph13.4 kmh 29.64 in1003.7 mb 0.00 in0.0 mm 0.00 in0.0 mm 0.00 in0.0 mm
07:05 AM 48.7°F9.3°C 45.0°F7.2°C 87% 2.5 mph SSW4.0 kmh SSW 7.8 mph12.6 kmh 29.65 in1004.1 mb 0.00 in0.0 mm 0.00 in0.0 mm 0.00 in0.0 mm
07:10 AM 48.6°F9.2°C 44.9°F7.2°C 87% 6.9 mph SSW11.1 kmh SSW 8.9 mph14.3 kmh 29.65 in1004.1 mb 0.00 in0.0 mm 0.00 in0.0 mm 0.00 in0.0 mm
07:15 AM 48.6°F9.2°C 44.9°F7.2°C 87% 6.5 mph SSW10.5 kmh SSW 11.4 mph18.3 kmh 29.65 in1004.1 mb 0.00 in0.0 mm 0.00 in0.0 mm 0.00 in0.0 mm
07:20 AM 48.6°F9.2°C 44.9°F7.2°C 87% 6.3 mph SSW10.1 kmh SSW 11.4 mph18.3 kmh 29.65 in1004.1 mb 0.00 in0.0 mm 0.00 in0.0 mm 0.00 in0.0 mm
07:25 AM 48.4°F9.1°C 44.7°F7.1°C 87% 7.8 mph SSW12.6 kmh SSW 12.3 mph19.8 kmh 29.65 in1004.1 mb 0.00 in0.0 mm 0.00 in0.0 mm 0.00 in0.0 mm
07:30 AM 48.4°F9.1°C 44.7°F7.1°C 87% 9.2 mph SSW14.8 kmh SSW 12.8 mph20.6 kmh 29.65 in1004.1 mb 0.00 in0.0 mm 0.00 in0.0 mm 0.00 in0.0 mm
07:35 AM 48.4°F9.1°C 44.7°F7.1°C 87% 5.8 mph SSW9.3 kmh SSW 12.8 mph20.6 kmh 29.65 in1004.1 mb 0.00 in0.0 mm 0.00 in0.0 mm 0.00 in0.0 mm
07:40 AM 48.4°F9.1°C 44.7°F7.1°C 87% 6.0 mph SSW9.7 kmh SSW 12.1 mph19.5 kmh 29.65 in1004.1 mb 0.00 in0.0 mm 0.00 in0.0 mm 0.00 in0.0 mm
07:45 AM 48.6°F9.2°C 44.9°F7.2°C 87% 5.4 mph S8.7 kmh S 10.5 mph16.9 kmh 29.65 in1004.1 mb 0.00 in0.0 mm 0.00 in0.0 mm 0.00 in0.0 mm
07:50 AM 48.6°F9.2°C 44.9°F7.2°C 87% 2.0 mph S3.2 kmh S 9.2 mph14.8 kmh 29.66 in1004.4 mb 0.00 in0.0 mm 0.00 in0.0 mm 0.00 in0.0 mm
07:55 AM 48.6°F9.2°C 44.9°F7.2°C 87% 4.3 mph S6.9 kmh S 9.2 mph14.8 kmh 29.66 in1004.4 mb 0.00 in0.0 mm 0.00 in0.0 mm 0.00 in0.0 mm
08:00 AM 48.6°F9.2°C 45.2°F7.3°C 88% 5.8 mph S9.3 kmh S 6.9 mph11.1 kmh 29.66 in1004.4 mb 0.00 in0.0 mm 0.00 in0.0 mm 0.00 in0.0 mm
08:05 AM 48.6°F9.2°C 45.2°F7.3°C 88% 0.9 mph S1.4 kmh S 6.9 mph11.1 kmh 29.66 in1004.4 mb 0.00 in0.0 mm 0.00 in0.0 mm 0.00 in0.0 mm
08:10 AM 48.6°F9.2°C 45.2°F7.3°C 88% 2.2 mph SSW3.5 kmh SSW 5.6 mph9.0 kmh 29.66 in1004.4 mb 0.00 in0.0 mm 0.00 in0.0 mm 0.00 in0.0 mm
08:15 AM 48.4°F9.1°C 45.0°F7.2°C 88% 6.3 mph SSW10.1 kmh SSW 7.2 mph11.6 kmh 29.66 in1004.4 mb 0.00 in0.0 mm 0.00 in0.0 mm 0.00 in0.0 mm
08:20 AM 48.4°F9.1°C 45.0°F7.2°C 88% 2.0 mph SSW3.2 kmh SSW 7.2 mph11.6 kmh 29.66 in1004.4 mb 0.00 in0.0 mm 0.00 in0.0 mm 0.00 in0.0 mm
08:25 AM 48.4°F9.1°C 45.0°F7.2°C 88% 2.9 mph SSW4.7 kmh SSW 5.4 mph8.7 kmh 29.66 in1004.4 mb 0.00 in0.0 mm 0.00 in0.0 mm 0.00 in0.0 mm
08:30 AM 48.4°F9.1°C 45.0°F7.2°C 88% 4.3 mph SSW6.9 kmh SSW 4.7 mph7.6 kmh 29.67 in1004.7 mb 0.00 in0.0 mm 0.00 in0.0 mm 0.00 in0.0 mm
08:35 AM 48.4°F9.1°C 45.0°F7.2°C 88% 6.3 mph SSW10.1 kmh SSW 8.7 mph14.0 kmh 29.67 in1004.7 mb 0.00 in0.0 mm 0.00 in0.0 mm 0.00 in0.0 mm
08:40 AM 48.4°F9.1°C 45.0°F7.2°C 88% 4.9 mph SSW7.9 kmh SSW 10.3 mph16.6 kmh 29.67 in1004.7 mb 0.00 in0.0 mm 0.00 in0.0 mm 0.00 in0.0 mm
08:45 AM 48.4°F9.1°C 45.0°F7.2°C 88% 10.7 mph SSW17.2 kmh SSW 11.0 mph17.7 kmh 29.68 in1005.1 mb 0.00 in0.0 mm 0.00 in0.0 mm 0.00 in0.0 mm
08:50 AM 48.4°F9.1°C 45.0°F7.2°C 88% 4.9 mph S7.9 kmh S 11.0 mph17.7 kmh 29.68 in1005.1 mb 0.00 in0.0 mm 0.00 in0.0 mm 0.00 in0.0 mm
08:55 AM 48.4°F9.1°C 44.7°F7.1°C 87% 2.7 mph S4.3 kmh S 10.1 mph16.3 kmh 29.68 in1005.1 mb 0.00 in0.0 mm 0.00 in0.0 mm 0.00 in0.0 mm
09:00 AM 48.4°F9.1°C 44.7°F7.1°C 87% 4.0 mph S6.4 kmh S 11.4 mph18.3 kmh 29.68 in1005.1 mb 0.00 in0.0 mm 0.00 in0.0 mm 0.00 in0.0 mm
09:05 AM 48.6°F9.2°C 44.9°F7.2°C 87% 7.4 mph S11.9 kmh S 12.3 mph19.8 kmh 29.68 in1005.1 mb 0.00 in0.0 mm 0.00 in0.0 mm 0.00 in0.0 mm
09:10 AM 48.6°F9.2°C 44.9°F7.2°C 87% 14.1 mph S22.7 kmh S 14.1 mph22.7 kmh 29.68 in1005.1 mb 0.00 in0.0 mm 0.00 in0.0 mm 0.00 in0.0 mm
09:15 AM 48.7°F9.3°C 44.7°F7.1°C 86% 4.3 mph S6.9 kmh S 14.1 mph22.7 kmh 29.68 in1005.1 mb 0.00 in0.0 mm 0.00 in0.0 mm 0.00 in0.0 mm
09:20 AM 48.7°F9.3°C 44.7°F7.1°C 86% 2.5 mph S4.0 kmh S 14.1 mph22.7 kmh 29.68 in1005.1 mb 0.00 in0.0 mm 0.00 in0.0 mm 0.00 in0.0 mm
09:25 AM 48.9°F9.4°C 44.9°F7.2°C 86% 3.4 mph SSW5.5 kmh SSW 10.7 mph17.2 kmh 29.68 in1005.1 mb 0.00 in0.0 mm 0.00 in0.0 mm 0.00 in0.0 mm
09:30 AM 48.9°F9.4°C 44.9°F7.2°C 86% 3.1 mph SSW5.0 kmh SSW 10.5 mph16.9 kmh 29.69 in1005.4 mb 0.00 in0.0 mm 0.00 in0.0 mm 0.00 in0.0 mm
09:35 AM 49.1°F9.5°C 45.0°F7.2°C 86% Calm Calm 7.6 mph12.2 kmh 29.69 in1005.4 mb 0.00 in0.0 mm 0.00 in0.0 mm 0.00 in0.0 mm
09:40 AM 49.3°F9.6°C 45.2°F7.3°C 86% Calm Calm 6.5 mph10.5 kmh 29.69 in1005.4 mb 0.00 in0.0 mm 0.00 in0.0 mm 0.00 in0.0 mm
09:45 AM 49.3°F9.6°C 44.9°F7.2°C 85% 1.3 mph ENE2.1 kmh ENE 5.4 mph8.7 kmh 29.69 in1005.4 mb 0.00 in0.0 mm 0.00 in0.0 mm 0.00 in0.0 mm
09:50 AM 49.5°F9.7°C 45.1°F7.3°C 85% 2.2 mph ENE3.5 kmh ENE 5.4 mph8.7 kmh 29.69 in1005.4 mb 0.00 in0.0 mm 0.00 in0.0 mm 0.00 in0.0 mm
09:55 AM 49.6°F9.8°C 45.2°F7.3°C 85% 5.4 mph ENE8.7 kmh ENE 5.4 mph8.7 kmh 29.69 in1005.4 mb 0.00 in0.0 mm 0.00 in0.0 mm 0.00 in0.0 mm
10:00 AM 49.6°F9.8°C 45.2°F7.3°C 85% 2.0 mph E3.2 kmh E 5.4 mph8.7 kmh 29.70 in1005.8 mb 0.00 in0.0 mm 0.00 in0.0 mm 0.00 in0.0 mm
10:05 AM 49.6°F9.8°C 45.2°F7.3°C 85% 1.6 mph ESE2.6 kmh ESE 4.9 mph7.9 kmh 29.69 in1005.4 mb 0.00 in0.0 mm 0.00 in0.0 mm 0.00 in0.0 mm
10:10 AM 49.6°F9.8°C 45.2°F7.3°C 85% Calm Calm 4.0 mph6.4 kmh 29.70 in1005.8 mb 0.00 in0.0 mm 0.00 in0.0 mm 0.00 in0.0 mm
10:15 AM 49.6°F9.8°C 45.2°F7.3°C 85% Calm Calm 2.0 mph3.2 kmh 29.70 in1005.8 mb 0.00 in0.0 mm 0.00 in0.0 mm 0.00 in0.0 mm
10:20 AM 49.8°F9.9°C 45.1°F7.3°C 84% Calm Calm 4.3 mph6.9 kmh 29.70 in1005.8 mb 0.00 in0.0 mm 0.00 in0.0 mm 0.00 in0.0 mm
10:25 AM 50.2°F10.1°C 45.5°F7.5°C 84% 2.5 mph S4.0 kmh S 4.3 mph6.9 kmh 29.70 in1005.8 mb 0.00 in0.0 mm 0.00 in0.0 mm 0.00 in0.0 mm
10:30 AM 50.2°F10.1°C 45.5°F7.5°C 84% Calm Calm 5.1 mph8.2 kmh 29.70 in1005.8 mb 0.00 in0.0 mm 0.00 in0.0 mm 0.00 in0.0 mm
10:35 AM 50.2°F10.1°C 45.2°F7.3°C 83% Calm Calm 5.1 mph8.2 kmh 29.70 in1005.8 mb 0.00 in0.0 mm 0.00 in0.0 mm 0.00 in0.0 mm
10:40 AM 50.4°F10.2°C 45.3°F7.4°C 83% 2.9 mph E4.7 kmh E 4.0 mph6.4 kmh 29.70 in1005.8 mb 0.00 in0.0 mm 0.00 in0.0 mm 0.00 in0.0 mm
10:45 AM 50.5°F10.3°C 45.2°F7.3°C 82% 1.6 mph SE2.6 kmh SE 4.0 mph6.4 kmh 29.70 in1005.8 mb 0.00 in0.0 mm 0.00 in0.0 mm 0.00 in0.0 mm
10:50 AM 50.7°F10.4°C 45.4°F7.4°C 82% 2.7 mph SE4.3 kmh SE 3.6 mph5.8 kmh 29.70 in1005.8 mb 0.00 in0.0 mm 0.00 in0.0 mm 0.00 in0.0 mm
10:55 AM 50.9°F10.5°C 45.6°F7.6°C 82% Calm Calm 3.8 mph6.1 kmh 29.70 in1005.8 mb 0.00 in0.0 mm 0.00 in0.0 mm 0.00 in0.0 mm
11:00 AM 50.9°F10.5°C 45.6°F7.6°C 82% 1.3 mph E2.1 kmh E 4.9 mph7.9 kmh 29.70 in1005.8 mb 0.00 in0.0 mm 0.00 in0.0 mm 0.00 in0.0 mm
11:05 AM 51.1°F10.6°C 45.8°F7.7°C 82% Calm Calm 4.9 mph7.9 kmh 29.70 in1005.8 mb 0.00 in0.0 mm 0.00 in0.0 mm 0.00 in0.0 mm
11:10 AM 50.9°F10.5°C 45.6°F7.6°C 82% 4.0 mph NNE6.4 kmh NNE 5.8 mph9.3 kmh 29.70 in1005.8 mb 0.00 in0.0 mm 0.00 in0.0 mm 0.00 in0.0 mm
11:15 AM 51.1°F10.6°C 45.8°F7.7°C 82% 0.9 mph NE1.4 kmh NE 7.2 mph11.6 kmh 29.70 in1005.8 mb 0.00 in0.0 mm 0.00 in0.0 mm 0.00 in0.0 mm
11:20 AM 50.9°F10.5°C 45.3°F7.4°C 81% 5.6 mph NNE9.0 kmh NNE 10.5 mph16.9 kmh 29.70 in1005.8 mb 0.00 in0.0 mm 0.00 in0.0 mm 0.00 in0.0 mm
11:25 AM 50.9°F10.5°C 45.6°F7.6°C 82% 7.4 mph NE11.9 kmh NE 10.5 mph16.9 kmh 29.70 in1005.8 mb 0.00 in0.0 mm 0.00 in0.0 mm 0.00 in0.0 mm
11:30 AM 51.1°F10.6°C 45.8°F7.7°C 82% 6.5 mph NE10.5 kmh NE 10.5 mph16.9 kmh 29.70 in1005.8 mb 0.00 in0.0 mm 0.00 in0.0 mm 0.00 in0.0 mm
11:35 AM 50.9°F10.5°C 45.3°F7.4°C 81% 3.4 mph NE5.5 kmh NE 10.5 mph16.9 kmh 29.70 in1005.8 mb 0.00 in0.0 mm 0.00 in0.0 mm 0.00 in0.0 mm
11:40 AM 50.9°F10.5°C 45.3°F7.4°C 81% 2.5 mph NNE4.0 kmh NNE 9.6 mph15.4 kmh 29.70 in1005.8 mb 0.00 in0.0 mm 0.00 in0.0 mm 0.00 in0.0 mm
11:45 AM 50.9°F10.5°C 45.3°F7.4°C 81% 2.5 mph NNE4.0 kmh NNE 12.3 mph19.8 kmh 29.70 in1005.8 mb 0.00 in0.0 mm 0.00 in0.0 mm 0.00 in0.0 mm
11:50 AM 50.5°F10.3°C 44.9°F7.2°C 81% 2.9 mph NNE4.7 kmh NNE 12.3 mph19.8 kmh 29.70 in1005.8 mb 0.00 in0.0 mm 0.00 in0.0 mm 0.00 in0.0 mm
11:55 AM 50.2°F10.1°C 44.9°F7.2°C 82% 4.5 mph N7.2 kmh N 9.4 mph15.1 kmh 29.70 in1005.8 mb 0.00 in0.0 mm 0.00 in0.0 mm 0.00 in0.0 mm
12:00 PM 49.8°F9.9°C 44.8°F7.1°C 83% Calm Calm 8.9 mph14.3 kmh 29.69 in1005.4 mb 0.00 in0.0 mm 0.00 in0.0 mm 0.00 in0.0 mm
12:05 PM 49.8°F9.9°C 44.8°F7.1°C 83% 2.0 mph N3.2 kmh N 8.9 mph14.3 kmh 29.69 in1005.4 mb 0.00 in0.0 mm 0.00 in0.0 mm 0.00 in0.0 mm
12:10 PM 49.8°F9.9°C 45.1°F7.3°C 84% 2.9 mph N4.7 kmh N 12.1 mph19.5 kmh 29.70 in1005.8 mb 0.00 in0.0 mm 0.00 in0.0 mm 0.00 in0.0 mm
12:15 PM 49.8°F9.9°C 44.8°F7.1°C 83% 8.7 mph N14.0 kmh N 12.1 mph19.5 kmh 29.69 in1005.4 mb 0.00 in0.0 mm 0.00 in0.0 mm 0.00 in0.0 mm
12:20 PM 49.8°F9.9°C 45.1°F7.3°C 83% 1.8 mph N2.9 kmh N 12.5 mph20.1 kmh 29.69 in1005.4 mb 0.00 in0.0 mm 0.00 in0.0 mm 0.00 in0.0 mm
12:25 PM 49.8°F9.9°C 45.1°F7.3°C 84% 8.9 mph NE14.3 kmh NE 12.5 mph20.1 kmh 29.69 in1005.4 mb 0.00 in0.0 mm 0.00 in0.0 mm 0.00 in0.0 mm
12:30 PM 49.8°F9.9°C 45.1°F7.3°C 84% 4.0 mph NE6.4 kmh NE 10.1 mph16.3 kmh 29.69 in1005.4 mb 0.00 in0.0 mm 0.00 in0.0 mm 0.00 in0.0 mm
12:35 PM 50.0°F10.0°C 45.0°F7.2°C 83% 1.3 mph ENE2.1 kmh ENE 7.4 mph11.9 kmh 29.69 in1005.4 mb 0.00 in0.0 mm 0.00 in0.0 mm 0.00 in0.0 mm
12:40 PM 50.2°F10.1°C 45.2°F7.3°C 83% 4.5 mph ENE7.2 kmh ENE 6.0 mph9.7 kmh 29.69 in1005.4 mb 0.00 in0.0 mm 0.00 in0.0 mm 0.00 in0.0 mm
12:45 PM 50.4°F10.2°C 45.6°F7.6°C 84% 7.6 mph NE12.2 kmh NE 7.8 mph12.6 kmh 29.69 in1005.4 mb 0.00 in0.0 mm 0.00 in0.0 mm 0.00 in0.0 mm
12:50 PM 50.4°F10.2°C 45.3°F7.4°C 83% 4.9 mph NNE7.9 kmh NNE 16.6 mph26.7 kmh 29.69 in1005.4 mb 0.00 in0.0 mm 0.00 in0.0 mm 0.00 in0.0 mm
12:55 PM 50.5°F10.3°C 45.2°F7.3°C 82% 5.1 mph N8.2 kmh N 16.6 mph26.7 kmh 29.69 in1005.4 mb 0.00 in0.0 mm 0.00 in0.0 mm 0.00 in0.0 mm
01:00 PM 50.4°F10.2°C 45.0°F7.2°C 82% 2.9 mph N4.7 kmh N 12.1 mph19.5 kmh 29.69 in1005.4 mb 0.00 in0.0 mm 0.00 in0.0 mm 0.00 in0.0 mm
01:05 PM 50.2°F10.1°C 44.9°F7.2°C 82% 7.2 mph NNE11.6 kmh NNE 10.3 mph16.6 kmh 29.69 in1005.4 mb 0.00 in0.0 mm 0.00 in0.0 mm 0.00 in0.0 mm
01:10 PM 50.2°F10.1°C 45.2°F7.3°C 83% 2.7 mph NE4.3 kmh NE 10.7 mph17.2 kmh 29.69 in1005.4 mb 0.00 in0.0 mm 0.00 in0.0 mm 0.00 in0.0 mm
01:15 PM 50.2°F10.1°C 45.2°F7.3°C 83% 4.0 mph NE6.4 kmh NE 10.7 mph17.2 kmh 29.68 in1005.1 mb 0.00 in0.0 mm 0.00 in0.0 mm 0.00 in0.0 mm
01:20 PM 49.8°F9.9°C 45.1°F7.3°C 84% 2.2 mph NNE3.5 kmh NNE 15.0 mph24.1 kmh 29.68 in1005.1 mb 0.00 in0.0 mm 0.00 in0.0 mm 0.00 in0.0 mm
01:25 PM 49.6°F9.8°C 44.6°F7.0°C 83% 10.1 mph NNE16.3 kmh NNE 15.7 mph25.3 kmh 29.69 in1005.4 mb 0.00 in0.0 mm 0.00 in0.0 mm 0.00 in0.0 mm
01:30 PM 49.5°F9.7°C 44.4°F6.9°C 83% 7.2 mph NNE11.6 kmh NNE 15.7 mph25.3 kmh 29.69 in1005.4 mb 0.00 in0.0 mm 0.00 in0.0 mm 0.00 in0.0 mm
01:35 PM 49.3°F9.6°C 44.6°F7.0°C 84% 2.9 mph NE4.7 kmh NE 15.2 mph24.5 kmh 29.69 in1005.4 mb 0.00 in0.0 mm 0.00 in0.0 mm 0.00 in0.0 mm
01:40 PM 49.3°F9.6°C 44.6°F7.0°C 84% 4.7 mph NE7.6 kmh NE 13.0 mph20.9 kmh 29.69 in1005.4 mb 0.00 in0.0 mm 0.00 in0.0 mm 0.00 in0.0 mm
01:45 PM 49.3°F9.6°C 44.9°F7.2°C 85% 2.9 mph NE4.7 kmh NE 10.7 mph17.2 kmh 29.69 in1005.4 mb 0.00 in0.0 mm 0.00 in0.0 mm 0.00 in0.0 mm
01:50 PM 49.3°F9.6°C 44.6°F7.0°C 84% 9.6 mph NE15.4 kmh NE 10.7 mph17.2 kmh 29.68 in1005.1 mb 0.00 in0.0 mm 0.00 in0.0 mm 0.00 in0.0 mm
01:55 PM 49.5°F9.7°C 44.8°F7.1°C 84% Calm Calm 10.5 mph16.9 kmh 29.68 in1005.1 mb 0.00 in0.0 mm 0.00 in0.0 mm 0.00 in0.0 mm
02:00 PM 49.6°F9.8°C 44.9°F7.2°C 84% 2.2 mph E3.5 kmh E 8.3 mph13.4 kmh 29.69 in1005.4 mb 0.00 in0.0 mm 0.00 in0.0 mm 0.00 in0.0 mm
02:05 PM 49.6°F9.8°C 44.6°F7.0°C 83% 6.5 mph E10.5 kmh E 8.3 mph13.4 kmh 29.69 in1005.4 mb 0.00 in0.0 mm 0.00 in0.0 mm 0.00 in0.0 mm
02:10 PM 49.8°F9.9°C 44.8°F7.1°C 83% 2.7 mph ENE4.3 kmh ENE 8.1 mph13.0 kmh 29.69 in1005.4 mb 0.00 in0.0 mm 0.00 in0.0 mm 0.00 in0.0 mm
02:15 PM 49.8°F9.9°C 44.5°F6.9°C 82% 3.1 mph ENE5.0 kmh ENE 8.1 mph13.0 kmh 29.69 in1005.4 mb 0.00 in0.0 mm 0.00 in0.0 mm 0.00 in0.0 mm
02:20 PM 49.8°F9.9°C 44.5°F6.9°C 82% 4.5 mph ENE7.2 kmh ENE 6.7 mph10.8 kmh 29.69 in1005.4 mb 0.00 in0.0 mm 0.00 in0.0 mm 0.00 in0.0 mm
02:25 PM 50.4°F10.2°C 45.0°F7.2°C 82% 0.9 mph NNE1.4 kmh NNE 6.9 mph11.1 kmh 29.69 in1005.4 mb 0.00 in0.0 mm 0.00 in0.0 mm 0.00 in0.0 mm
02:30 PM 50.5°F10.3°C 45.2°F7.3°C 82% 3.4 mph NE5.5 kmh NE 6.9 mph11.1 kmh 29.69 in1005.4 mb 0.00 in0.0 mm 0.00 in0.0 mm 0.00 in0.0 mm
02:35 PM 50.5°F10.3°C 44.9°F7.2°C 81% Calm Calm 4.9 mph7.9 kmh 29.69 in1005.4 mb 0.00 in0.0 mm 0.00 in0.0 mm 0.00 in0.0 mm
02:40 PM 50.7°F10.4°C 44.8°F7.1°C 80% 6.9 mph ENE11.1 kmh ENE 6.9 mph11.1 kmh 29.69 in1005.4 mb 0.00 in0.0 mm 0.00 in0.0 mm 0.00 in0.0 mm
02:45 PM 50.7°F10.4°C 44.8°F7.1°C 80% 4.3 mph NE6.9 kmh NE 12.3 mph19.8 kmh 29.70 in1005.8 mb 0.00 in0.0 mm 0.00 in0.0 mm 0.00 in0.0 mm
02:50 PM 50.7°F10.4°C 44.4°F6.9°C 79% 13.6 mph NNE21.9 kmh NNE 13.6 mph21.9 kmh 29.70 in1005.8 mb 0.00 in0.0 mm 0.00 in0.0 mm 0.00 in0.0 mm
02:55 PM 50.4°F10.2°C 44.4°F6.9°C 80% 10.7 mph NNE17.2 kmh NNE 13.6 mph21.9 kmh 29.70 in1005.8 mb 0.00 in0.0 mm 0.00 in0.0 mm 0.00 in0.0 mm
03:00 PM 50.2°F10.1°C 44.2°F6.8°C 80% 7.8 mph NNE12.6 kmh NNE 13.6 mph21.9 kmh 29.70 in1005.8 mb 0.00 in0.0 mm 0.00 in0.0 mm 0.00 in0.0 mm
03:05 PM 49.8°F9.9°C 43.9°F6.6°C 80% 2.5 mph NNE4.0 kmh NNE 14.3 mph23.0 kmh 29.70 in1005.8 mb 0.00 in0.0 mm 0.00 in0.0 mm 0.00 in0.0 mm
03:10 PM 49.8°F9.9°C 44.2°F6.8°C 81% 4.9 mph NNE7.9 kmh NNE 14.3 mph23.0 kmh 29.70 in1005.8 mb 0.00 in0.0 mm 0.00 in0.0 mm 0.00 in0.0 mm
03:15 PM 49.8°F9.9°C 44.2°F6.8°C 81% 2.9 mph NNE4.7 kmh NNE 9.6 mph15.4 kmh 29.70 in1005.8 mb 0.00 in0.0 mm 0.00 in0.0 mm 0.00 in0.0 mm
03:20 PM 49.8°F9.9°C 44.5°F6.9°C 82% 3.6 mph NE5.8 kmh NE 8.3 mph13.4 kmh 29.70 in1005.8 mb 0.00 in0.0 mm 0.00 in0.0 mm 0.00 in0.0 mm
03:25 PM 49.6°F9.8°C 44.3°F6.8°C 82% Calm Calm 7.6 mph12.2 kmh 29.70 in1005.8 mb 0.00 in0.0 mm 0.00 in0.0 mm 0.00 in0.0 mm
03:30 PM 49.8°F9.9°C 44.5°F6.9°C 82% Calm Calm 3.8 mph6.1 kmh 29.70 in1005.8 mb 0.00 in0.0 mm 0.00 in0.0 mm 0.00 in0.0 mm
03:35 PM 49.8°F9.9°C 44.2°F6.8°C 81% 2.0 mph E3.2 kmh E 8.9 mph14.3 kmh 29.70 in1005.8 mb 0.00 in0.0 mm 0.00 in0.0 mm 0.00 in0.0 mm
03:40 PM 49.6°F9.8°C 44.0°F6.7°C 81% Calm Calm 8.9 mph14.3 kmh 29.70 in1005.8 mb 0.00 in0.0 mm 0.00 in0.0 mm 0.00 in0.0 mm
03:45 PM 49.8°F9.9°C 44.2°F6.8°C 81% 0.9 mph E1.4 kmh E 4.7 mph7.6 kmh 29.70 in1005.8 mb 0.00 in0.0 mm 0.00 in0.0 mm 0.00 in0.0 mm
03:50 PM 49.6°F9.8°C 44.0°F6.7°C 81% 2.0 mph ESE3.2 kmh ESE 3.4 mph5.5 kmh 29.71 in1006.1 mb 0.00 in0.0 mm 0.00 in0.0 mm 0.00 in0.0 mm
03:55 PM 49.6°F9.8°C 43.7°F6.5°C 80% 3.8 mph ESE6.1 kmh ESE 4.5 mph7.2 kmh 29.70 in1005.8 mb 0.00 in0.0 mm 0.00 in0.0 mm 0.00 in0.0 mm
04:00 PM 49.3°F9.6°C 43.0°F6.1°C 79% 2.0 mph SE3.2 kmh SE 6.7 mph10.8 kmh 29.71 in1006.1 mb 0.00 in0.0 mm 0.00 in0.0 mm 0.00 in0.0 mm
04:05 PM 49.3°F9.6°C 42.7°F5.9°C 78% 2.5 mph S4.0 kmh S 10.5 mph16.9 kmh 29.71 in1006.1 mb 0.00 in0.0 mm 0.00 in0.0 mm 0.00 in0.0 mm
04:10 PM 48.9°F9.4°C 42.6°F5.9°C 79% 2.2 mph SSE3.5 kmh SSE 10.5 mph16.9 kmh 29.71 in1006.1 mb 0.00 in0.0 mm 0.00 in0.0 mm 0.00 in0.0 mm
04:15 PM 48.7°F9.3°C 42.5°F5.8°C 79% 5.8 mph E9.3 kmh E 6.5 mph10.5 kmh 29.71 in1006.1 mb 0.00 in0.0 mm 0.00 in0.0 mm 0.00 in0.0 mm
04:20 PM 48.4°F9.1°C 42.1°F5.6°C 79% 2.9 mph E4.7 kmh E 8.1 mph13.0 kmh 29.71 in1006.1 mb 0.00 in0.0 mm 0.00 in0.0 mm 0.00 in0.0 mm
04:25 PM 48.2°F9.0°C 41.9°F5.5°C 79% 1.6 mph ESE2.6 kmh ESE 8.1 mph13.0 kmh 29.71 in1006.1 mb 0.00 in0.0 mm 0.00 in0.0 mm 0.00 in0.0 mm
04:30 PM 48.0°F8.9°C 42.1°F5.6°C 80% 2.0 mph SE3.2 kmh SE 5.8 mph9.3 kmh 29.71 in1006.1 mb 0.00 in0.0 mm 0.00 in0.0 mm 0.00 in0.0 mm
04:35 PM 47.8°F8.8°C 41.9°F5.5°C 80% 2.9 mph ESE4.7 kmh ESE 5.8 mph9.3 kmh 29.71 in1006.1 mb 0.00 in0.0 mm 0.00 in0.0 mm 0.00 in0.0 mm
04:40 PM 47.5°F8.6°C 41.6°F5.3°C 80% 2.9 mph SE4.7 kmh SE 6.0 mph9.7 kmh 29.71 in1006.1 mb 0.00 in0.0 mm 0.00 in0.0 mm 0.00 in0.0 mm
04:45 PM 47.3°F8.5°C 41.5°F5.3°C 80% Calm Calm 7.6 mph12.2 kmh 29.72 in1006.4 mb 0.00 in0.0 mm 0.00 in0.0 mm 0.00 in0.0 mm
04:50 PM 47.1°F8.4°C 41.6°F5.3°C 81% 3.4 mph SSW5.5 kmh SSW 7.6 mph12.2 kmh 29.72 in1006.4 mb 0.00 in0.0 mm 0.00 in0.0 mm 0.00 in0.0 mm
04:55 PM 46.9°F8.3°C 41.4°F5.2°C 81% 8.1 mph SW13.0 kmh SW 12.1 mph19.5 kmh 29.72 in1006.4 mb 0.00 in0.0 mm 0.00 in0.0 mm 0.00 in0.0 mm
05:00 PM 46.9°F8.3°C 41.7°F5.4°C 82% 5.4 mph SSW8.7 kmh SSW 12.1 mph19.5 kmh 29.72 in1006.4 mb 0.00 in0.0 mm 0.00 in0.0 mm 0.00 in0.0 mm
05:05 PM 46.8°F8.2°C 41.6°F5.3°C 82% 3.8 mph SSW6.1 kmh SSW 11.6 mph18.7 kmh 29.72 in1006.4 mb 0.00 in0.0 mm 0.00 in0.0 mm 0.00 in0.0 mm
05:10 PM 46.6°F8.1°C 41.4°F5.2°C 82% 7.4 mph SSW11.9 kmh SSW 11.9 mph19.2 kmh 29.72 in1006.4 mb 0.00 in0.0 mm 0.00 in0.0 mm 0.00 in0.0 mm
05:15 PM 46.6°F8.1°C 41.4°F5.2°C 82% 2.0 mph SSW3.2 kmh SSW 11.9 mph19.2 kmh 29.72 in1006.4 mb 0.00 in0.0 mm 0.00 in0.0 mm 0.00 in0.0 mm
05:20 PM 46.6°F8.1°C 41.4°F5.2°C 82% 2.0 mph SSW3.2 kmh SSW 10.5 mph16.9 kmh 29.72 in1006.4 mb 0.00 in0.0 mm 0.00 in0.0 mm 0.00 in0.0 mm
05:25 PM 46.4°F8.0°C 41.3°F5.2°C 82% 2.0 mph S3.2 kmh S 7.2 mph11.6 kmh 29.73 in1006.8 mb 0.00 in0.0 mm 0.00 in0.0 mm 0.00 in0.0 mm
05:30 PM 46.2°F7.9°C 41.1°F5.1°C 82% Calm Calm 3.6 mph5.8 kmh 29.73 in1006.8 mb 0.00 in0.0 mm 0.00 in0.0 mm 0.00 in0.0 mm
05:35 PM 46.2°F7.9°C 41.1°F5.1°C 82% 2.5 mph E4.0 kmh E 6.3 mph10.1 kmh 29.73 in1006.8 mb 0.00 in0.0 mm 0.00 in0.0 mm 0.00 in0.0 mm
05:40 PM 46.2°F7.9°C 40.8°F4.9°C 81% 3.6 mph E5.8 kmh E 6.3 mph10.1 kmh 29.73 in1006.8 mb 0.00 in0.0 mm 0.00 in0.0 mm 0.00 in0.0 mm
05:45 PM 46.2°F7.9°C 40.8°F4.9°C 81% 2.0 mph S3.2 kmh S 5.8 mph9.3 kmh 29.73 in1006.8 mb 0.00 in0.0 mm 0.00 in0.0 mm 0.00 in0.0 mm
05:50 PM 46.2°F7.9°C 40.5°F4.7°C 80% 2.2 mph S3.5 kmh S 5.8 mph9.3 kmh 29.73 in1006.8 mb 0.00 in0.0 mm 0.00 in0.0 mm 0.00 in0.0 mm
05:55 PM 46.2°F7.9°C 40.5°F4.7°C 80% Calm Calm 4.5 mph7.2 kmh 29.73 in1006.8 mb 0.00 in0.0 mm 0.00 in0.0 mm 0.00 in0.0 mm
06:00 PM 46.0°F7.8°C 40.3°F4.6°C 80% Calm Calm 4.5 mph7.2 kmh 29.73 in1006.8 mb 0.00 in0.0 mm 0.00 in0.0 mm 0.00 in0.0 mm
06:05 PM 46.0°F7.8°C 40.3°F4.6°C 80% 2.0 mph SE3.2 kmh SE 4.5 mph7.2 kmh 29.73 in1006.8 mb 0.00 in0.0 mm 0.00 in0.0 mm 0.00 in0.0 mm
06:10 PM 46.0°F7.8°C 40.3°F4.6°C 80% 1.3 mph ESE2.1 kmh ESE 3.4 mph5.5 kmh 29.74 in1007.1 mb 0.00 in0.0 mm 0.00 in0.0 mm 0.00 in0.0 mm
06:15 PM 45.7°F7.6°C 40.2°F4.6°C 81% 2.9 mph SE4.7 kmh SE 3.6 mph5.8 kmh 29.74 in1007.1 mb 0.00 in0.0 mm 0.00 in0.0 mm 0.00 in0.0 mm
06:20 PM 45.7°F7.6°C 40.2°F4.6°C 81% 6.7 mph SE10.8 kmh SE 6.7 mph10.8 kmh 29.74 in1007.1 mb 0.00 in0.0 mm 0.00 in0.0 mm 0.00 in0.0 mm
06:25 PM 45.7°F7.6°C 40.2°F4.6°C 81% Calm Calm 6.7 mph10.8 kmh 29.74 in1007.1 mb 0.00 in0.0 mm 0.00 in0.0 mm 0.00 in0.0 mm
06:30 PM 45.5°F7.5°C 40.0°F4.4°C 81% 5.1 mph E8.2 kmh E 9.4 mph15.1 kmh 29.74 in1007.1 mb 0.00 in0.0 mm 0.00 in0.0 mm 0.00 in0.0 mm
06:35 PM 45.3°F7.4°C 40.2°F4.6°C 82% 4.0 mph ENE6.4 kmh ENE 9.4 mph15.1 kmh 29.74 in1007.1 mb 0.00 in0.0 mm 0.00 in0.0 mm 0.00 in0.0 mm
06:40 PM 45.1°F7.3°C 40.0°F4.4°C 82% 4.5 mph ENE7.2 kmh ENE 6.9 mph11.1 kmh 29.75 in1007.5 mb 0.00 in0.0 mm 0.00 in0.0 mm 0.00 in0.0 mm
06:45 PM 45.1°F7.3°C 40.0°F4.4°C 82% 1.8 mph E2.9 kmh E 7.6 mph12.2 kmh 29.75 in1007.5 mb 0.00 in0.0 mm 0.00 in0.0 mm 0.00 in0.0 mm
06:50 PM 45.1°F7.3°C 40.0°F4.4°C 82% 3.6 mph E5.8 kmh E 7.6 mph12.2 kmh 29.75 in1007.5 mb 0.00 in0.0 mm 0.00 in0.0 mm 0.00 in0.0 mm
06:55 PM 45.0°F7.2°C 39.5°F4.2°C 81% 2.2 mph E3.5 kmh E 7.4 mph11.9 kmh 29.75 in1007.5 mb 0.00 in0.0 mm 0.00 in0.0 mm 0.00 in0.0 mm
07:00 PM 45.0°F7.2°C 39.5°F4.2°C 81% Calm Calm 7.4 mph11.9 kmh 29.75 in1007.5 mb 0.00 in0.0 mm 0.00 in0.0 mm 0.00 in0.0 mm
07:05 PM 45.0°F7.2°C 39.5°F4.2°C 81% Calm Calm 3.4 mph5.5 kmh 29.75 in1007.5 mb 0.00 in0.0 mm 0.00 in0.0 mm 0.00 in0.0 mm
07:10 PM 44.8°F7.1°C 39.3°F4.1°C 81% 2.0 mph SE3.2 kmh SE 4.5 mph7.2 kmh 29.75 in1007.5 mb 0.00 in0.0 mm 0.00 in0.0 mm 0.00 in0.0 mm
07:15 PM 44.8°F7.1°C 39.3°F4.1°C 81% 3.1 mph SE5.0 kmh SE 4.5 mph7.2 kmh 29.75 in1007.5 mb 0.00 in0.0 mm 0.00 in0.0 mm 0.00 in0.0 mm
07:20 PM 45.0°F7.2°C 39.5°F4.2°C 81% 2.7 mph SE4.3 kmh SE 7.8 mph12.6 kmh 29.75 in1007.5 mb 0.00 in0.0 mm 0.00 in0.0 mm 0.00 in0.0 mm
07:25 PM 45.0°F7.2°C 39.5°F4.2°C 81% 2.7 mph SE4.3 kmh SE 7.8 mph12.6 kmh 29.76 in1007.8 mb 0.00 in0.0 mm 0.00 in0.0 mm 0.00 in0.0 mm
07:30 PM 45.0°F7.2°C 39.5°F4.2°C 81% Calm Calm 7.4 mph11.9 kmh 29.75 in1007.5 mb 0.00 in0.0 mm 0.00 in0.0 mm 0.00 in0.0 mm
07:35 PM 44.8°F7.1°C 39.3°F4.1°C 81% 2.0 mph SE3.2 kmh SE 5.4 mph8.7 kmh 29.75 in1007.5 mb 0.00 in0.0 mm 0.00 in0.0 mm 0.00 in0.0 mm
07:40 PM 45.0°F7.2°C 39.5°F4.2°C 81% 6.0 mph SE9.7 kmh SE 6.0 mph9.7 kmh 29.76 in1007.8 mb 0.00 in0.0 mm 0.00 in0.0 mm 0.00 in0.0 mm
07:45 PM 45.0°F7.2°C 39.5°F4.2°C 81% 5.1 mph SE8.2 kmh SE 6.5 mph10.5 kmh 29.76 in1007.8 mb 0.00 in0.0 mm 0.00 in0.0 mm 0.00 in0.0 mm
07:50 PM 45.0°F7.2°C 39.5°F4.2°C 81% 1.6 mph SSE2.6 kmh SSE 6.5 mph10.5 kmh 29.76 in1007.8 mb 0.00 in0.0 mm 0.00 in0.0 mm 0.00 in0.0 mm
07:55 PM 44.8°F7.1°C 39.3°F4.1°C 81% Calm Calm 5.8 mph9.3 kmh 29.76 in1007.8 mb 0.00 in0.0 mm 0.00 in0.0 mm 0.00 in0.0 mm
08:00 PM 44.8°F7.1°C 39.3°F4.1°C 81% 1.3 mph ESE2.1 kmh ESE 4.3 mph6.9 kmh 29.76 in1007.8 mb 0.00 in0.0 mm 0.00 in0.0 mm 0.00 in0.0 mm
08:05 PM 44.8°F7.1°C 39.3°F4.1°C 81% Calm Calm 5.4 mph8.7 kmh 29.76 in1007.8 mb 0.00 in0.0 mm 0.00 in0.0 mm 0.00 in0.0 mm
08:10 PM 44.8°F7.1°C 39.0°F3.9°C 80% 1.6 mph SE2.6 kmh SE 5.4 mph8.7 kmh 29.75 in1007.5 mb 0.00 in0.0 mm 0.00 in0.0 mm 0.00 in0.0 mm
08:15 PM 45.0°F7.2°C 39.2°F4.0°C 80% Calm Calm 4.9 mph7.9 kmh 29.76 in1007.8 mb 0.00 in0.0 mm 0.00 in0.0 mm 0.00 in0.0 mm
08:20 PM 45.0°F7.2°C 39.2°F4.0°C 80% 2.9 mph SSE4.7 kmh SSE 12.1 mph19.5 kmh 29.76 in1007.8 mb 0.00 in0.0 mm 0.00 in0.0 mm 0.00 in0.0 mm
08:25 PM 45.0°F7.2°C 39.2°F4.0°C 80% 3.4 mph S5.5 kmh S 12.1 mph19.5 kmh 29.76 in1007.8 mb 0.00 in0.0 mm 0.00 in0.0 mm 0.00 in0.0 mm
08:30 PM 45.0°F7.2°C 38.9°F3.8°C 79% 3.6 mph SE5.8 kmh SE 7.4 mph11.9 kmh 29.76 in1007.8 mb 0.00 in0.0 mm 0.00 in0.0 mm 0.00 in0.0 mm
08:35 PM 45.1°F7.3°C 39.0°F3.9°C 79% 2.0 mph SE3.2 kmh SE 7.4 mph11.9 kmh 29.76 in1007.8 mb 0.00 in0.0 mm 0.00 in0.0 mm 0.00 in0.0 mm
08:40 PM 45.0°F7.2°C 38.9°F3.8°C 79% 3.4 mph E5.5 kmh E 5.1 mph8.2 kmh 29.76 in1007.8 mb 0.00 in0.0 mm 0.00 in0.0 mm 0.00 in0.0 mm
08:45 PM 45.1°F7.3°C 38.7°F3.7°C 78% 1.8 mph E2.9 kmh E 8.1 mph13.0 kmh 29.76 in1007.8 mb 0.00 in0.0 mm 0.00 in0.0 mm 0.00 in0.0 mm
08:50 PM 45.1°F7.3°C 38.7°F3.7°C 78% 4.9 mph SE7.9 kmh SE 8.1 mph13.0 kmh 29.76 in1007.8 mb 0.00 in0.0 mm 0.00 in0.0 mm 0.00 in0.0 mm
08:55 PM 45.1°F7.3°C 38.4°F3.6°C 77% 8.7 mph S14.0 kmh S 10.3 mph16.6 kmh 29.76 in1007.8 mb 0.00 in0.0 mm 0.00 in0.0 mm 0.00 in0.0 mm
09:00 PM 45.1°F7.3°C 38.4°F3.6°C 77% 7.4 mph S11.9 kmh S 10.3 mph16.6 kmh 29.76 in1007.8 mb 0.00 in0.0 mm 0.00 in0.0 mm 0.00 in0.0 mm
09:05 PM 45.1°F7.3°C 38.4°F3.6°C 77% 2.2 mph SSW3.5 kmh SSW 10.5 mph16.9 kmh 29.76 in1007.8 mb 0.00 in0.0 mm 0.00 in0.0 mm 0.00 in0.0 mm
09:10 PM 45.1°F7.3°C 38.4°F3.6°C 77% Calm Calm 10.5 mph16.9 kmh 29.76 in1007.8 mb 0.00 in0.0 mm 0.00 in0.0 mm 0.00 in0.0 mm
09:15 PM 45.0°F7.2°C 38.2°F3.4°C 77% Calm Calm 6.5 mph10.5 kmh 29.76 in1007.8 mb 0.00 in0.0 mm 0.00 in0.0 mm 0.00 in0.0 mm
09:20 PM 45.0°F7.2°C 38.2°F3.4°C 77% 1.6 mph ESE2.6 kmh ESE 6.7 mph10.8 kmh 29.76 in1007.8 mb 0.00 in0.0 mm 0.00 in0.0 mm 0.00 in0.0 mm
09:25 PM 44.8°F7.1°C 38.0°F3.3°C 77% Calm Calm 8.9 mph14.3 kmh 29.76 in1007.8 mb 0.00 in0.0 mm 0.00 in0.0 mm 0.00 in0.0 mm
09:30 PM 44.8°F7.1°C 38.0°F3.3°C 77% 2.9 mph S4.7 kmh S 8.9 mph14.3 kmh 29.76 in1007.8 mb 0.00 in0.0 mm 0.00 in0.0 mm 0.00 in0.0 mm
09:35 PM 44.8°F7.1°C 38.3°F3.5°C 78% 1.3 mph S2.1 kmh S 9.2 mph14.8 kmh 29.76 in1007.8 mb 0.00 in0.0 mm 0.00 in0.0 mm 0.00 in0.0 mm
09:40 PM 45.0°F7.2°C 38.5°F3.6°C 78% 4.3 mph S6.9 kmh S 9.2 mph14.8 kmh 29.76 in1007.8 mb 0.00 in0.0 mm 0.00 in0.0 mm 0.00 in0.0 mm
09:45 PM 45.1°F7.3°C 38.7°F3.7°C 78% Calm Calm 11.0 mph17.7 kmh 29.76 in1007.8 mb 0.00 in0.0 mm 0.00 in0.0 mm 0.00 in0.0 mm
09:50 PM 45.1°F7.3°C 38.7°F3.7°C 78% 2.2 mph S3.5 kmh S 11.0 mph17.7 kmh 29.76 in1007.8 mb 0.00 in0.0 mm 0.00 in0.0 mm 0.00 in0.0 mm
09:55 PM 45.1°F7.3°C 38.7°F3.7°C 78% 1.8 mph S2.9 kmh S 8.7 mph14.0 kmh 29.76 in1007.8 mb 0.00 in0.0 mm 0.00 in0.0 mm 0.00 in0.0 mm
10:00 PM 45.1°F7.3°C 38.7°F3.7°C 78% 0.7 mph SSE1.1 kmh SSE 8.7 mph14.0 kmh 29.76 in1007.8 mb 0.00 in0.0 mm 0.00 in0.0 mm 0.00 in0.0 mm
10:05 PM 45.1°F7.3°C 38.7°F3.7°C 78% 3.6 mph SSE5.8 kmh SSE 8.5 mph13.7 kmh 29.76 in1007.8 mb 0.00 in0.0 mm 0.00 in0.0 mm 0.00 in0.0 mm
10:10 PM 45.0°F7.2°C 38.5°F3.6°C 78% 1.3 mph SSE2.1 kmh SSE 6.7 mph10.8 kmh 29.76 in1007.8 mb 0.00 in0.0 mm 0.00 in0.0 mm 0.00 in0.0 mm
10:15 PM 45.0°F7.2°C 38.5°F3.6°C 78% Calm Calm 6.7 mph10.8 kmh 29.77 in1008.1 mb 0.00 in0.0 mm 0.00 in0.0 mm 0.00 in0.0 mm
10:20 PM 44.8°F7.1°C 38.3°F3.5°C 78% 1.6 mph E2.6 kmh E 5.1 mph8.2 kmh 29.76 in1007.8 mb 0.00 in0.0 mm 0.00 in0.0 mm 0.00 in0.0 mm
10:25 PM 44.8°F7.1°C 38.3°F3.5°C 78% 2.5 mph SSW4.0 kmh SSW 6.9 mph11.1 kmh 29.76 in1007.8 mb 0.00 in0.0 mm 0.00 in0.0 mm 0.00 in0.0 mm
10:30 PM 44.8°F7.1°C 38.3°F3.5°C 78% 2.5 mph SSW4.0 kmh SSW 10.5 mph16.9 kmh 29.76 in1007.8 mb 0.00 in0.0 mm 0.00 in0.0 mm 0.00 in0.0 mm
10:35 PM 45.0°F7.2°C 38.5°F3.6°C 78% 7.8 mph SSW12.6 kmh SSW 11.9 mph19.2 kmh 29.76 in1007.8 mb 0.00 in0.0 mm 0.00 in0.0 mm 0.00 in0.0 mm
10:40 PM 45.1°F7.3°C 38.7°F3.7°C 78% 5.4 mph SSW8.7 kmh SSW 11.9 mph19.2 kmh 29.77 in1008.1 mb 0.00 in0.0 mm 0.00 in0.0 mm 0.00 in0.0 mm
10:45 PM 45.1°F7.3°C 38.7°F3.7°C 78% 6.0 mph SSW9.7 kmh SSW 17.4 mph28.0 kmh 29.77 in1008.1 mb 0.00 in0.0 mm 0.00 in0.0 mm 0.00 in0.0 mm
10:50 PM 45.1°F7.3°C 39.0°F3.9°C 79% 9.6 mph S15.4 kmh S 17.4 mph28.0 kmh 29.76 in1007.8 mb 0.00 in0.0 mm 0.00 in0.0 mm 0.00 in0.0 mm
10:55 PM 45.1°F7.3°C 38.7°F3.7°C 78% 13.6 mph S21.9 kmh S 17.9 mph28.8 kmh 29.77 in1008.1 mb 0.00 in0.0 mm 0.00 in0.0 mm 0.00 in0.0 mm
11:00 PM 45.0°F7.2°C 38.5°F3.6°C 78% 5.4 mph S8.7 kmh S 17.9 mph28.8 kmh 29.76 in1007.8 mb 0.00 in0.0 mm 0.00 in0.0 mm 0.00 in0.0 mm
11:05 PM 45.0°F7.2°C 38.5°F3.6°C 78% 8.1 mph S13.0 kmh S 15.0 mph24.1 kmh 29.77 in1008.1 mb 0.00 in0.0 mm 0.00 in0.0 mm 0.00 in0.0 mm
11:10 PM 45.0°F7.2°C 38.5°F3.6°C 78% 7.6 mph S12.2 kmh S 15.4 mph24.8 kmh 29.76 in1007.8 mb 0.00 in0.0 mm 0.00 in0.0 mm 0.00 in0.0 mm
11:15 PM 44.8°F7.1°C 38.7°F3.7°C 79% 6.5 mph S10.5 kmh S 18.6 mph29.9 kmh 29.76 in1007.8 mb 0.00 in0.0 mm 0.00 in0.0 mm 0.00 in0.0 mm
11:20 PM 44.8°F7.1°C 38.3°F3.5°C 78% 10.5 mph SSW16.9 kmh SSW 18.6 mph29.9 kmh 29.76 in1007.8 mb 0.00 in0.0 mm 0.00 in0.0 mm 0.00 in0.0 mm
11:25 PM 45.0°F7.2°C 38.5°F3.6°C 78% 6.9 mph SSW11.1 kmh SSW 16.8 mph27.0 kmh 29.76 in1007.8 mb 0.00 in0.0 mm 0.00 in0.0 mm 0.00 in0.0 mm
11:30 PM 45.0°F7.2°C 38.5°F3.6°C 78% 10.7 mph SSW17.2 kmh SSW 16.1 mph25.9 kmh 29.76 in1007.8 mb 0.00 in0.0 mm 0.00 in0.0 mm 0.00 in0.0 mm
11:35 PM 44.8°F7.1°C 38.0°F3.3°C 77% 5.8 mph SSW9.3 kmh SSW 16.1 mph25.9 kmh 29.76 in1007.8 mb 0.00 in0.0 mm 0.00 in0.0 mm 0.00 in0.0 mm
11:40 PM 45.0°F7.2°C 38.2°F3.4°C 77% 7.8 mph SW12.6 kmh SW 13.6 mph21.9 kmh 29.76 in1007.8 mb 0.00 in0.0 mm 0.00 in0.0 mm 0.00 in0.0 mm
11:45 PM 45.1°F7.3°C 38.4°F3.6°C 77% 11.2 mph SSW18.0 kmh SSW 15.4 mph24.8 kmh 29.76 in1007.8 mb 0.00 in0.0 mm 0.00 in0.0 mm 0.00 in0.0 mm
11:50 PM 45.1°F7.3°C 38.4°F3.6°C 77% 5.8 mph SSW9.3 kmh SSW 15.4 mph24.8 kmh 29.76 in1007.8 mb 0.00 in0.0 mm 0.00 in0.0 mm 0.00 in0.0 mm
11:55 PM 45.1°F7.3°C 38.4°F3.6°C 77% 7.6 mph SSW12.2 kmh SSW 11.6 mph18.7 kmh 29.76 in1007.8 mb 0.00 in0.0 mm 0.00 in0.0 mm 0.00 in0.0 mm